Time;durP1;ratioP1;P1;durP2;ratioP2;P2;SDS_P1;SDS_P2;PMS_P1;PMS_P2;Temp;Humidity;BMP_temperature;BMP_pressure;BME280_temperature;BME280_humidity;BME280_pressure;Samples;Min_cycle;Max_cycle;Signal;HPM_P1;HPM_P2
2023/10/06 00:00:54;;;;;;;10.27;3.80;;;;;;;;;;5015884;28;21026;-58
2023/10/06 00:03:20;;;;;;;8.60;3.67;;;;;;;;;;5020129;28;20375;-58
2023/10/06 00:05:48;;;;;;;8.50;3.90;;;;;;;;;;5020114;28;20409;-58
2023/10/06 00:08:20;;;;;;;9.80;3.65;;;;;;;;;;5017688;28;20407;-58
2023/10/06 00:10:46;;;;;;;10.50;4.18;;;;;;;;;;5024856;28;20457;-58
2023/10/06 00:13:18;;;;;;;10.00;4.17;;;;;;;;;;5017177;28;20409;-58
2023/10/06 00:15:45;;;;;;;9.90;4.00;;;;;;;;;;5020646;28;20407;-58
2023/10/06 00:18:16;;;;;;;9.18;4.10;;;;;;;;;;5024948;28;20481;-58
2023/10/06 00:20:46;;;;;;;8.90;3.90;;;;;;;;;;5025217;28;20395;-58
2023/10/06 00:23:14;;;;;;;8.32;3.97;;;;;;;;;;5018087;28;20444;-58
2023/10/06 00:25:42;;;;;;;7.93;3.70;;;;;;;;;;5019478;28;20815;-58
2023/10/06 00:28:14;;;;;;;8.38;3.65;;;;;;;;;;5024116;28;20437;-58
2023/10/06 00:33:43;;;;;;;8.13;4.28;;;;;;;;;;5023584;28;20402;-58
2023/10/06 00:36:14;;;;;;;9.30;4.10;;;;;;;;;;5021762;28;20414;-57
2023/10/06 00:38:42;;;;;;;8.80;4.13;;;;;;;;;;5015653;28;20922;-58
2023/10/06 00:41:08;;;;;;;11.23;4.45;;;;;;;;;;5016958;28;20831;-58
2023/10/06 00:43:34;;;;;;;9.43;3.92;;;;;;;;;;5020551;28;20474;-58
2023/10/06 00:46:00;;;;;;;9.93;4.15;;;;;;;;;;5023885;28;20409;-58
2023/10/06 00:48:29;;;;;;;8.68;4.68;;;;;;;;;;5024748;28;20393;-58
2023/10/06 00:50:57;;;;;;;11.10;4.30;;;;;;;;;;5018028;28;20412;-58
2023/10/06 00:53:23;;;;;;;9.13;4.00;;;;;;;;;;5016937;28;20884;-58
2023/10/06 00:55:48;;;;;;;8.63;4.03;;;;;;;;;;5024852;28;20419;-58
2023/10/06 00:58:13;;;;;;;9.73;4.60;;;;;;;;;;5015182;28;20417;-58
2023/10/06 01:00:39;;;;;;;10.73;4.70;;;;;;;;;;5020011;28;20399;-58
2023/10/06 01:03:14;;;;;;;8.60;4.03;;;;;;;;;;5023597;28;20410;-58
2023/10/06 01:05:40;;;;;;;12.17;4.70;;;;;;;;;;5025035;28;20441;-58
2023/10/06 01:08:07;;;;;;;12.00;4.93;;;;;;;;;;5022045;28;20430;-58
2023/10/06 01:10:34;;;;;;;9.73;4.53;;;;;;;;;;5021104;28;20406;-58
2023/10/06 01:13:11;;;;;;;8.52;4.40;;;;;;;;;;5024810;28;20407;-58
2023/10/06 01:15:37;;;;;;;10.20;4.60;;;;;;;;;;5024470;28;20838;-58
2023/10/06 01:18:07;;;;;;;10.47;4.60;;;;;;;;;;5018525;28;20405;-58
2023/10/06 01:20:37;;;;;;;8.95;4.68;;;;;;;;;;5023350;28;20398;-58
2023/10/06 01:23:10;;;;;;;9.80;4.85;;;;;;;;;;5015639;28;21338;-58
2023/10/06 01:25:35;;;;;;;12.40;4.88;;;;;;;;;;5016386;28;20405;-58
2023/10/06 01:28:03;;;;;;;10.02;4.50;;;;;;;;;;5018983;28;20470;-58
2023/10/06 01:30:28;;;;;;;11.63;4.90;;;;;;;;;;5026259;28;20428;-58
2023/10/06 01:32:54;;;;;;;12.13;4.87;;;;;;;;;;5024824;28;20399;-58
2023/10/06 01:35:23;;;;;;;12.50;4.93;;;;;;;;;;5017878;28;20407;-58
2023/10/06 01:37:49;;;;;;;12.38;5.30;;;;;;;;;;5016526;28;20511;-58
2023/10/06 01:42:48;;;;;;;10.18;4.68;;;;;;;;;;5017034;28;20413;-58
2023/10/06 01:45:14;;;;;;;9.70;4.73;;;;;;;;;;5017612;28;20405;-58
2023/10/06 01:47:39;;;;;;;9.97;5.20;;;;;;;;;;5016319;28;20400;-58
2023/10/06 01:50:05;;;;;;;10.80;4.93;;;;;;;;;;5024081;28;20960;-58
2023/10/06 01:52:30;;;;;;;11.67;4.67;;;;;;;;;;5017424;28;20417;-58
2023/10/06 01:55:09;;;;;;;11.50;4.97;;;;;;;;;;5016706;28;20411;-58
2023/10/06 01:57:34;;;;;;;9.90;4.53;;;;;;;;;;5023414;28;20446;-58
2023/10/06 01:59:59;;;;;;;10.50;4.73;;;;;;;;;;5016237;28;20408;-58
2023/10/06 02:02:24;;;;;;;11.20;4.90;;;;;;;;;;5017546;28;20395;-59
2023/10/06 02:04:52;;;;;;;12.30;4.80;;;;;;;;;;5023784;28;20411;-58
2023/10/06 02:07:18;;;;;;;10.77;4.60;;;;;;;;;;5023029;28;20406;-58
2023/10/06 02:09:43;;;;;;;10.00;4.75;;;;;;;;;;5017764;28;21136;-58
2023/10/06 02:12:09;;;;;;;12.07;4.87;;;;;;;;;;5015638;28;20494;-58
2023/10/06 02:14:35;;;;;;;9.97;4.60;;;;;;;;;;5023328;28;20431;-58
2023/10/06 02:17:05;;;;;;;9.77;5.00;;;;;;;;;;5016128;28;20571;-58
2023/10/06 02:19:32;;;;;;;10.73;5.03;;;;;;;;;;5016927;28;20420;-58
2023/10/06 02:21:57;;;;;;;11.57;4.70;;;;;;;;;;5023049;28;20400;-58
2023/10/06 02:24:23;;;;;;;9.43;4.67;;;;;;;;;;5014410;28;20462;-58
2023/10/06 02:26:57;;;;;;;10.60;4.83;;;;;;;;;;5017728;28;20936;-58
2023/10/06 02:29:23;;;;;;;9.10;4.28;;;;;;;;;;5022201;28;20396;-58
2023/10/06 02:31:48;;;;;;;10.45;4.95;;;;;;;;;;5015134;28;20409;-58
2023/10/06 02:34:26;;;;;;;10.35;4.65;;;;;;;;;;5022878;28;20420;-58
2023/10/06 02:36:54;;;;;;;14.02;4.70;;;;;;;;;;5021368;28;20419;-58
2023/10/06 02:39:19;;;;;;;11.30;5.07;;;;;;;;;;5014586;28;20797;-58
2023/10/06 02:41:46;;;;;;;9.40;4.90;;;;;;;;;;5022503;28;20391;-59
2023/10/06 02:44:15;;;;;;;11.97;5.07;;;;;;;;;;5017648;28;20469;-58
2023/10/06 02:46:44;;;;;;;10.07;4.80;;;;;;;;;;5015426;28;20479;-58
2023/10/06 02:49:10;;;;;;;12.15;4.88;;;;;;;;;;5022503;28;20439;-58
2023/10/06 02:51:47;;;;;;;9.95;4.60;;;;;;;;;;5016357;28;20397;-58
2023/10/06 02:56:38;;;;;;;10.63;4.90;;;;;;;;;;5022636;28;20407;-58
2023/10/06 02:59:20;;;;;;;11.43;4.70;;;;;;;;;;5014231;28;20487;-58
2023/10/06 03:01:51;;;;;;;9.75;4.43;;;;;;;;;;5020187;28;20890;-58
2023/10/06 03:04:17;;;;;;;11.85;4.82;;;;;;;;;;5019352;28;20431;-58
2023/10/06 03:06:42;;;;;;;8.35;4.10;;;;;;;;;;5004447;28;20534;-58
2023/10/06 03:09:08;;;;;;;10.73;4.33;;;;;;;;;;5002486;28;20417;-59
2023/10/06 03:11:33;;;;;;;10.60;4.30;;;;;;;;;;4997565;28;20822;-58
2023/10/06 03:13:59;;;;;;;10.80;4.60;;;;;;;;;;4996022;28;20418;-58
2023/10/06 03:16:25;;;;;;;11.47;4.60;;;;;;;;;;4996012;28;20821;-58
2023/10/06 03:18:52;;;;;;;11.43;3.97;;;;;;;;;;5006213;28;20419;-58
2023/10/06 03:21:18;;;;;;;10.90;4.40;;;;;;;;;;5010472;28;20419;-58
2023/10/06 03:23:45;;;;;;;11.73;4.30;;;;;;;;;;5009758;28;20415;-58
2023/10/06 03:28:48;;;;;;;10.38;4.20;;;;;;;;;;5005267;28;20495;-58
2023/10/06 03:31:22;;;;;;;9.90;4.07;;;;;;;;;;5003599;28;21315;-58
2023/10/06 03:33:48;;;;;;;8.00;3.80;;;;;;;;;;4999247;28;20408;-58
2023/10/06 03:36:16;;;;;;;8.60;3.90;;;;;;;;;;5001560;28;20625;-58
2023/10/06 03:38:56;;;;;;;10.10;4.30;;;;;;;;;;5003737;28;20439;-58
2023/10/06 03:41:37;;;;;;;11.80;4.30;;;;;;;;;;5015386;28;20378;-58
2023/10/06 03:44:04;;;;;;;8.95;3.92;;;;;;;;;;5007519;28;20403;-58
2023/10/06 03:46:36;;;;;;;10.18;4.30;;;;;;;;;;5009241;28;20574;-58
2023/10/06 03:49:03;;;;;;;12.65;4.22;;;;;;;;;;5015338;28;20915;-58
2023/10/06 03:51:29;;;;;;;8.82;3.60;;;;;;;;;;5007633;28;20416;-58
2023/10/06 03:53:56;;;;;;;9.63;4.10;;;;;;;;;;5007684;28;20412;-58
2023/10/06 03:56:21;;;;;;;9.10;3.90;;;;;;;;;;5002526;28;20911;-58
2023/10/06 03:58:47;;;;;;;12.50;4.27;;;;;;;;;;4998909;28;20399;-58
2023/10/06 04:01:17;;;;;;;10.95;3.90;;;;;;;;;;4999572;28;20397;-58
2023/10/06 04:03:43;;;;;;;9.48;4.20;;;;;;;;;;5022217;28;20395;-59
2023/10/06 04:06:12;;;;;;;9.80;4.05;;;;;;;;;;5008751;28;20479;-57
2023/10/06 04:08:37;;;;;;;9.20;3.40;;;;;;;;;;5024484;28;21003;-58
2023/10/06 04:11:04;;;;;;;10.20;4.27;;;;;;;;;;5025377;28;20920;-58
2023/10/06 04:13:31;;;;;;;9.73;3.90;;;;;;;;;;5020384;28;20739;-58
2023/10/06 04:15:57;;;;;;;9.00;3.53;;;;;;;;;;5018686;28;20504;-58
2023/10/06 04:18:23;;;;;;;10.15;3.85;;;;;;;;;;5016653;28;20427;-58
2023/10/06 04:20:49;;;;;;;9.00;3.80;;;;;;;;;;5009682;28;20445;-58
2023/10/06 04:23:16;;;;;;;10.32;3.80;;;;;;;;;;5007939;28;20413;-58
2023/10/06 04:25:42;;;;;;;11.63;3.78;;;;;;;;;;5007183;28;20439;-58
2023/10/06 04:28:08;;;;;;;10.70;3.50;;;;;;;;;;5006598;28;20413;-58
2023/10/06 04:30:35;;;;;;;9.57;3.90;;;;;;;;;;5004844;28;20399;-58
2023/10/06 04:33:00;;;;;;;10.10;4.10;;;;;;;;;;5006471;28;20915;-58
2023/10/06 04:35:26;;;;;;;11.17;3.97;;;;;;;;;;4997998;28;20402;-58
2023/10/06 04:37:52;;;;;;;10.85;3.83;;;;;;;;;;5005495;28;20459;-58
2023/10/06 04:40:19;;;;;;;10.27;3.57;;;;;;;;;;5006253;28;20435;-58
2023/10/06 04:42:45;;;;;;;10.57;3.90;;;;;;;;;;5005368;28;20461;-58
2023/10/06 04:45:12;;;;;;;11.10;4.25;;;;;;;;;;5005636;28;20419;-58
2023/10/06 04:47:40;;;;;;;8.13;3.67;;;;;;;;;;5007988;28;20401;-58
2023/10/06 04:50:09;;;;;;;9.57;3.67;;;;;;;;;;5006042;28;20423;-57
2023/10/06 04:52:34;;;;;;;10.07;3.70;;;;;;;;;;5003071;28;20416;-58
2023/10/06 04:55:03;;;;;;;10.77;4.10;;;;;;;;;;5000369;28;20811;-58
2023/10/06 04:57:28;;;;;;;9.82;4.07;;;;;;;;;;5003712;28;20858;-58
2023/10/06 04:59:53;;;;;;;10.00;4.07;;;;;;;;;;5001991;28;20987;-58
2023/10/06 05:02:20;;;;;;;11.20;4.10;;;;;;;;;;5006511;28;20408;-58
2023/10/06 05:04:45;;;;;;;11.82;4.15;;;;;;;;;;5008352;28;20416;-58
2023/10/06 05:07:10;;;;;;;11.00;4.47;;;;;;;;;;5005960;28;20847;-58
2023/10/06 05:09:39;;;;;;;8.67;3.93;;;;;;;;;;5005902;28;20389;-58
2023/10/06 05:12:04;;;;;;;11.65;4.10;;;;;;;;;;5012957;28;20403;-58
2023/10/06 05:14:30;;;;;;;11.33;3.93;;;;;;;;;;5004408;28;21181;-58
2023/10/06 05:16:57;;;;;;;11.03;4.60;;;;;;;;;;4998308;28;20830;-58
2023/10/06 05:19:22;;;;;;;9.93;3.67;;;;;;;;;;4998144;28;20405;-58
2023/10/06 05:21:48;;;;;;;8.90;3.87;;;;;;;;;;5000318;28;20414;-58
2023/10/06 05:24:14;;;;;;;9.50;4.00;;;;;;;;;;5004891;28;20966;-58
2023/10/06 05:26:43;;;;;;;10.15;3.90;;;;;;;;;;5006314;28;20933;-58
2023/10/06 05:29:09;;;;;;;10.65;4.35;;;;;;;;;;5008238;28;20412;-58
2023/10/06 05:31:34;;;;;;;11.17;4.80;;;;;;;;;;5004380;28;20406;-59
2023/10/06 05:33:59;;;;;;;11.73;4.10;;;;;;;;;;5005492;28;20403;-58
2023/10/06 05:36:25;;;;;;;10.80;4.40;;;;;;;;;;5006090;28;21065;-58
2023/10/06 05:38:51;;;;;;;11.10;4.70;;;;;;;;;;5015622;28;20411;-57
2023/10/06 05:41:16;;;;;;;11.50;4.22;;;;;;;;;;5014319;28;20405;-58
2023/10/06 05:43:43;;;;;;;12.13;4.47;;;;;;;;;;5022841;28;20494;-57
2023/10/06 05:46:09;;;;;;;10.73;4.50;;;;;;;;;;5019732;28;20418;-57
2023/10/06 05:48:36;;;;;;;10.13;4.20;;;;;;;;;;5016714;28;20453;-57
2023/10/06 05:51:14;;;;;;;9.57;4.38;;;;;;;;;;5023774;28;20782;-58
2023/10/06 05:53:41;;;;;;;10.10;4.22;;;;;;;;;;5021747;28;20399;-57
2023/10/06 05:56:07;;;;;;;10.40;4.03;;;;;;;;;;5020854;28;20415;-57
2023/10/06 05:58:34;;;;;;;9.88;4.00;;;;;;;;;;5024031;28;20784;-57
2023/10/06 06:01:06;;;;;;;10.23;4.13;;;;;;;;;;5022938;28;20554;-57
2023/10/06 06:03:31;;;;;;;9.82;4.13;;;;;;;;;;5019731;28;20403;-57
2023/10/06 06:06:02;;;;;;;10.87;4.80;;;;;;;;;;5023659;28;20418;-57
2023/10/06 06:08:30;;;;;;;11.55;4.68;;;;;;;;;;5022617;28;20592;-58
2023/10/06 06:10:55;;;;;;;9.90;5.20;;;;;;;;;;5020926;28;20407;-57
2023/10/06 06:13:21;;;;;;;12.77;5.47;;;;;;;;;;5021252;28;20397;-57
2023/10/06 06:15:47;;;;;;;10.63;5.90;;;;;;;;;;5024029;28;20447;-58
2023/10/06 06:18:13;;;;;;;12.83;5.93;;;;;;;;;;5022387;28;20431;-57
2023/10/06 06:20:41;;;;;;;12.70;5.80;;;;;;;;;;5019718;28;20399;-57
2023/10/06 06:23:08;;;;;;;13.68;6.05;;;;;;;;;;5022646;28;20430;-57
2023/10/06 06:25:35;;;;;;;10.73;5.35;;;;;;;;;;5024056;28;20398;-57
2023/10/06 06:28:00;;;;;;;9.52;4.72;;;;;;;;;;5016598;28;20395;-58
2023/10/06 06:30:26;;;;;;;10.27;4.30;;;;;;;;;;5016074;28;20410;-57
2023/10/06 06:32:52;;;;;;;11.33;4.30;;;;;;;;;;5015453;28;20492;-57
2023/10/06 06:35:19;;;;;;;9.87;3.70;;;;;;;;;;5021294;28;20415;-57
2023/10/06 06:37:45;;;;;;;9.93;3.88;;;;;;;;;;5019683;28;20533;-57
2023/10/06 06:40:13;;;;;;;9.73;3.60;;;;;;;;;;5019696;28;20413;-55
2023/10/06 06:42:39;;;;;;;10.05;3.63;;;;;;;;;;5024314;28;20388;-57
2023/10/06 06:45:06;;;;;;;10.35;3.90;;;;;;;;;;5017668;28;20415;-57
2023/10/06 06:47:31;;;;;;;9.25;3.70;;;;;;;;;;5016553;28;20401;-57
2023/10/06 06:49:59;;;;;;;10.30;3.85;;;;;;;;;;5023463;28;20901;-57
2023/10/06 06:52:24;;;;;;;9.87;3.63;;;;;;;;;;5019507;28;20896;-57
2023/10/06 06:54:50;;;;;;;10.40;4.03;;;;;;;;;;5025560;28;20427;-57
2023/10/06 06:57:16;;;;;;;10.00;3.70;;;;;;;;;;5029850;28;20399;-57
2023/10/06 06:59:42;;;;;;;9.80;3.50;;;;;;;;;;5022549;28;20410;-57
2023/10/06 07:02:09;;;;;;;10.23;3.75;;;;;;;;;;5012595;28;20407;-57
2023/10/06 07:04:35;;;;;;;11.05;3.80;;;;;;;;;;5017822;28;20469;-57
2023/10/06 07:07:01;;;;;;;11.05;3.40;;;;;;;;;;5012983;28;20766;-58
2023/10/06 07:09:27;;;;;;;10.87;3.87;;;;;;;;;;5023203;28;20416;-57
2023/10/06 07:11:54;;;;;;;8.70;3.50;;;;;;;;;;5016910;28;20491;-57
2023/10/06 07:14:20;;;;;;;11.05;3.40;;;;;;;;;;5014519;28;20895;-57
2023/10/06 07:16:47;;;;;;;9.30;3.53;;;;;;;;;;5021573;28;20415;-57
2023/10/06 07:19:14;;;;;;;11.43;3.75;;;;;;;;;;5015200;28;20436;-57
2023/10/06 07:21:39;;;;;;;10.30;3.45;;;;;;;;;;5016096;28;20957;-58
2023/10/06 07:24:05;;;;;;;7.90;3.13;;;;;;;;;;5021289;28;20512;-57
2023/10/06 07:26:31;;;;;;;8.60;3.40;;;;;;;;;;5022171;28;20904;-57
2023/10/06 07:28:58;;;;;;;8.55;3.30;;;;;;;;;;5017889;28;20407;-58
2023/10/06 07:31:26;;;;;;;9.50;3.50;;;;;;;;;;5034840;28;20401;-57
2023/10/06 07:33:52;;;;;;;9.90;3.53;;;;;;;;;;5028883;28;20492;-58
2023/10/06 07:36:17;;;;;;;8.77;3.60;;;;;;;;;;5026429;28;20395;-58
2023/10/06 07:38:43;;;;;;;11.17;4.10;;;;;;;;;;5028702;28;20418;-58
2023/10/06 07:41:09;;;;;;;8.50;3.40;;;;;;;;;;5028481;28;20410;-57
2023/10/06 07:43:35;;;;;;;9.60;3.60;;;;;;;;;;5028674;28;20405;-57
2023/10/06 07:46:07;;;;;;;9.57;3.13;;;;;;;;;;5028622;28;20403;-58
2023/10/06 07:48:33;;;;;;;9.80;3.50;;;;;;;;;;5028711;28;20406;-58
2023/10/06 07:51:06;;;;;;;8.83;3.30;;;;;;;;;;5048871;28;20401;-57
2023/10/06 07:53:31;;;;;;;8.00;3.17;;;;;;;;;;5048862;28;20398;-58
2023/10/06 07:56:06;;;;;;;9.20;3.20;;;;;;;;;;5049064;28;20480;-58
2023/10/06 07:58:32;;;;;;;8.98;3.28;;;;;;;;;;5048418;28;20420;-57
2023/10/06 08:00:57;;;;;;;8.47;3.27;;;;;;;;;;5048706;28;20921;-57
2023/10/06 08:03:22;;;;;;;7.50;3.20;;;;;;;;;;5048579;28;20716;-57
2023/10/06 08:05:48;;;;;;;8.23;3.13;;;;;;;;;;5048771;28;20911;-57
2023/10/06 08:08:13;;;;;;;9.55;3.15;;;;;;;;;;5048237;28;20393;-58
2023/10/06 08:10:38;;;;;;;9.73;3.13;;;;;;;;;;5033604;28;20481;-58
2023/10/06 08:13:04;;;;;;;7.17;3.00;;;;;;;;;;5028537;28;20395;-57
2023/10/06 08:15:32;;;;;;;7.70;3.10;;;;;;;;;;5028743;28;20983;-57
2023/10/06 08:17:57;;;;;;;8.88;3.20;;;;;;;;;;5029349;28;20838;-57
2023/10/06 08:20:24;;;;;;;8.83;3.20;;;;;;;;;;5031732;28;20807;-57
2023/10/06 08:22:49;;;;;;;8.70;3.03;;;;;;;;;;5032494;28;20481;-57
2023/10/06 08:25:15;;;;;;;10.67;3.50;;;;;;;;;;5032176;28;20813;-58
2023/10/06 08:27:41;;;;;;;7.53;3.10;;;;;;;;;;5032096;28;20828;-58
2023/10/06 08:30:09;;;;;;;9.75;3.45;;;;;;;;;;5041610;28;20749;-56
2023/10/06 08:32:34;;;;;;;9.80;3.40;;;;;;;;;;5051961;28;20407;-58
2023/10/06 08:34:59;;;;;;;7.70;3.20;;;;;;;;;;5052451;28;20401;-58
2023/10/06 08:37:25;;;;;;;10.73;3.20;;;;;;;;;;5051779;28;21087;-58
2023/10/06 08:39:50;;;;;;;9.43;3.30;;;;;;;;;;5051807;28;20408;-57
2023/10/06 08:42:15;;;;;;;10.73;3.40;;;;;;;;;;5051801;28;20428;-58
2023/10/06 08:44:41;;;;;;;8.77;3.00;;;;;;;;;;5037827;28;20407;-58
2023/10/06 08:47:09;;;;;;;10.15;3.33;;;;;;;;;;5031120;28;20399;-57
2023/10/06 08:49:34;;;;;;;12.07;4.00;;;;;;;;;;5041018;28;20396;-57
2023/10/06 08:52:00;;;;;;;8.07;3.20;;;;;;;;;;5051997;28;20398;-57
2023/10/06 08:54:25;;;;;;;10.20;3.37;;;;;;;;;;5051200;28;20425;-57
2023/10/06 08:56:50;;;;;;;7.10;2.90;;;;;;;;;;5050775;28;20405;-57
2023/10/06 08:59:16;;;;;;;10.57;3.40;;;;;;;;;;5050701;28;20776;-57
2023/10/06 09:01:43;;;;;;;8.48;3.30;;;;;;;;;;5031404;28;20418;-58
2023/10/06 09:04:09;;;;;;;8.88;3.10;;;;;;;;;;5031275;28;20407;-57
2023/10/06 09:06:35;;;;;;;9.63;3.20;;;;;;;;;;5002456;28;20722;-57
2023/10/06 09:09:02;;;;;;;9.32;3.30;;;;;;;;;;5013418;28;20919;-58
2023/10/06 09:11:39;;;;;;;9.70;3.53;;;;;;;;;;5031127;28;20414;-57
2023/10/06 09:14:07;;;;;;;11.23;3.35;;;;;;;;;;5021570;28;20399;-57
2023/10/06 09:16:50;;;;;;;8.32;3.33;;;;;;;;;;5023928;28;20419;-57
2023/10/06 09:19:16;;;;;;;9.15;3.40;;;;;;;;;;5015868;28;20743;-57
2023/10/06 09:21:59;;;;;;;9.53;3.23;;;;;;;;;;5022253;28;20899;-57
2023/10/06 09:24:25;;;;;;;11.60;3.58;;;;;;;;;;5018923;28;20419;-57
2023/10/06 09:26:50;;;;;;;9.70;3.40;;;;;;;;;;5016570;28;20407;-57
2023/10/06 09:29:16;;;;;;;10.18;3.38;;;;;;;;;;5019174;28;20445;-58
2023/10/06 09:31:44;;;;;;;10.68;3.50;;;;;;;;;;5018166;28;20489;-58
2023/10/06 09:34:10;;;;;;;12.43;3.70;;;;;;;;;;5023458;28;20953;-57
2023/10/06 09:36:35;;;;;;;9.48;3.38;;;;;;;;;;5014691;28;20474;-57
2023/10/06 09:39:00;;;;;;;12.57;3.80;;;;;;;;;;5020042;28;20419;-58
2023/10/06 09:41:28;;;;;;;10.60;3.53;;;;;;;;;;5022750;28;20419;-57
2023/10/06 09:43:54;;;;;;;9.77;3.30;;;;;;;;;;5023940;28;20519;-57
2023/10/06 09:46:19;;;;;;;8.33;3.17;;;;;;;;;;5020240;28;20585;-57
2023/10/06 09:48:44;;;;;;;10.27;3.07;;;;;;;;;;5020875;28;20420;-57
2023/10/06 09:51:10;;;;;;;10.87;3.43;;;;;;;;;;5023371;28;20411;-57
2023/10/06 09:53:38;;;;;;;10.38;3.42;;;;;;;;;;5016186;28;20439;-57
2023/10/06 09:56:06;;;;;;;10.27;3.42;;;;;;;;;;5018136;28;20894;-57
2023/10/06 09:58:31;;;;;;;10.38;3.58;;;;;;;;;;5023781;28;20533;-57
2023/10/06 10:00:57;;;;;;;10.90;3.17;;;;;;;;;;5015729;28;20974;-57
2023/10/06 10:03:22;;;;;;;11.20;3.63;;;;;;;;;;5017493;28;20437;-57
2023/10/06 10:05:47;;;;;;;11.47;3.63;;;;;;;;;;5022795;28;20474;-57
2023/10/06 10:08:13;;;;;;;9.60;3.30;;;;;;;;;;5013908;28;20415;-57
2023/10/06 10:10:39;;;;;;;10.70;3.42;;;;;;;;;;5020598;28;20395;-57
2023/10/06 10:13:19;;;;;;;9.40;3.22;;;;;;;;;;5019581;28;20422;-58
2023/10/06 10:15:53;;;;;;;10.50;3.40;;;;;;;;;;5023119;28;20821;-57
2023/10/06 10:18:33;;;;;;;12.32;3.97;;;;;;;;;;5014872;28;20439;-57
2023/10/06 10:20:59;;;;;;;10.02;3.55;;;;;;;;;;5016568;28;20475;-57
2023/10/06 10:23:25;;;;;;;8.80;3.30;;;;;;;;;;5013968;28;20449;-57
2023/10/06 10:25:51;;;;;;;11.82;3.60;;;;;;;;;;5014820;28;20858;-57
2023/10/06 10:28:19;;;;;;;9.13;3.17;;;;;;;;;;5020293;28;20980;-57
2023/10/06 10:30:53;;;;;;;10.82;3.60;;;;;;;;;;5021150;28;20803;-57
2023/10/06 10:33:21;;;;;;;8.68;3.25;;;;;;;;;;5014898;28;20407;-57
2023/10/06 10:36:12;;;;;;;8.65;3.00;;;;;;;;;;5023251;28;20485;-57
2023/10/06 10:38:37;;;;;;;9.38;3.03;;;;;;;;;;5017100;28;20446;-57
2023/10/06 10:41:03;;;;;;;9.20;3.60;;;;;;;;;;5014620;28;20468;-58
2023/10/06 10:43:29;;;;;;;9.30;3.22;;;;;;;;;;5013608;28;20407;-57
2023/10/06 10:45:54;;;;;;;10.77;3.20;;;;;;;;;;5020876;28;20403;-57
2023/10/06 10:48:21;;;;;;;9.17;3.00;;;;;;;;;;5019891;28;20413;-57
2023/10/06 10:50:52;;;;;;;8.30;3.17;;;;;;;;;;5024085;28;20409;-57
2023/10/06 10:53:18;;;;;;;7.22;3.00;;;;;;;;;;5021805;28;20411;-57
2023/10/06 10:55:43;;;;;;;8.90;3.10;;;;;;;;;;5016610;28;20472;-58
2023/10/06 10:58:09;;;;;;;8.80;3.20;;;;;;;;;;5014440;28;20856;-58
2023/10/06 11:00:34;;;;;;;8.85;2.90;;;;;;;;;;5022522;28;20909;-58
2023/10/06 11:03:00;;;;;;;8.17;3.40;;;;;;;;;;5017764;28;20405;-58
2023/10/06 11:05:26;;;;;;;9.00;3.20;;;;;;;;;;5014610;28;20959;-58
2023/10/06 11:07:58;;;;;;;8.75;2.70;;;;;;;;;;5014424;28;20593;-57
2023/10/06 11:10:24;;;;;;;9.25;2.83;;;;;;;;;;5015993;28;20404;-57
2023/10/06 11:12:50;;;;;;;10.43;3.13;;;;;;;;;;5016212;28;20411;-57
2023/10/06 11:15:26;;;;;;;9.32;2.90;;;;;;;;;;5021745;28;20418;-58
2023/10/06 11:17:54;;;;;;;9.00;2.83;;;;;;;;;;5015259;28;20763;-58
2023/10/06 11:20:22;;;;;;;8.75;3.10;;;;;;;;;;5016984;28;20415;-58
2023/10/06 11:22:55;;;;;;;9.65;2.80;;;;;;;;;;5014199;28;20557;-58
2023/10/06 11:25:27;;;;;;;9.75;3.28;;;;;;;;;;5013642;28;20472;-58
2023/10/06 11:28:02;;;;;;;9.90;2.85;;;;;;;;;;5016411;28;20408;-58
2023/10/06 11:30:28;;;;;;;10.35;3.28;;;;;;;;;;5015729;28;20401;-58
2023/10/06 11:32:57;;;;;;;9.55;3.10;;;;;;;;;;5014760;28;20751;-58
2023/10/06 11:35:22;;;;;;;10.27;3.15;;;;;;;;;;5021212;28;20414;-57
2023/10/06 11:37:48;;;;;;;9.03;3.17;;;;;;;;;;5016569;28;20929;-58
2023/10/06 11:40:14;;;;;;;6.18;3.10;;;;;;;;;;5022276;28;20464;-58
2023/10/06 11:42:41;;;;;;;8.43;2.97;;;;;;;;;;5013974;28;20414;-58
2023/10/06 11:45:11;;;;;;;9.77;3.13;;;;;;;;;;5016677;28;20884;-58
2023/10/06 11:47:37;;;;;;;8.63;2.90;;;;;;;;;;5013539;28;20411;-57
2023/10/06 11:50:03;;;;;;;7.75;2.55;;;;;;;;;;5022869;28;20533;-58
2023/10/06 11:52:29;;;;;;;8.55;3.08;;;;;;;;;;5016865;28;20454;-58
2023/10/06 11:54:57;;;;;;;8.32;3.25;;;;;;;;;;5019446;28;20410;-58
2023/10/06 11:57:41;;;;;;;11.50;3.33;;;;;;;;;;5016754;28;20389;-58
2023/10/06 12:00:10;;;;;;;8.65;2.83;;;;;;;;;;5017622;28;20413;-58
2023/10/06 12:02:45;;;;;;;8.30;3.10;;;;;;;;;;5020929;28;20434;-58
2023/10/06 12:05:11;;;;;;;11.20;3.15;;;;;;;;;;5017626;28;20412;-58
2023/10/06 12:07:38;;;;;;;8.73;2.90;;;;;;;;;;5017872;28;20402;-57
2023/10/06 12:10:05;;;;;;;9.70;3.30;;;;;;;;;;5023695;28;20453;-58
2023/10/06 12:12:30;;;;;;;12.57;3.30;;;;;;;;;;5022929;28;20409;-57
2023/10/06 12:14:56;;;;;;;9.57;3.40;;;;;;;;;;5017486;28;20411;-58
2023/10/06 12:17:22;;;;;;;9.13;3.08;;;;;;;;;;5018015;28;20475;-58
2023/10/06 12:19:47;;;;;;;9.43;3.27;;;;;;;;;;5019279;28;20815;-57
2023/10/06 12:22:13;;;;;;;10.63;3.27;;;;;;;;;;5017561;28;20404;-58
2023/10/06 12:24:39;;;;;;;11.80;3.25;;;;;;;;;;5017166;28;20413;-57
2023/10/06 12:27:05;;;;;;;12.88;3.70;;;;;;;;;;5020199;28;20413;-57
2023/10/06 12:29:31;;;;;;;10.87;3.80;;;;;;;;;;5026158;28;20405;-58
2023/10/06 12:31:57;;;;;;;11.35;3.80;;;;;;;;;;5025212;28;20411;-58
2023/10/06 12:34:22;;;;;;;11.70;3.53;;;;;;;;;;5019073;28;20410;-57
2023/10/06 12:36:48;;;;;;;11.43;3.88;;;;;;;;;;5018338;28;20540;-57
2023/10/06 12:39:16;;;;;;;10.27;3.53;;;;;;;;;;5024642;28;20419;-57
2023/10/06 12:41:46;;;;;;;10.02;3.45;;;;;;;;;;5018579;28;20819;-57
2023/10/06 12:44:12;;;;;;;12.32;3.78;;;;;;;;;;5018356;28;20538;-57
2023/10/06 12:46:38;;;;;;;11.13;3.80;;;;;;;;;;5025038;28;20491;-57
2023/10/06 12:49:06;;;;;;;12.20;3.70;;;;;;;;;;5029075;28;20983;-57
2023/10/06 12:51:32;;;;;;;10.55;3.90;;;;;;;;;;5021348;28;20723;-57
2023/10/06 12:53:57;;;;;;;9.63;3.67;;;;;;;;;;5020009;28;20411;-57
2023/10/06 12:56:22;;;;;;;10.40;4.10;;;;;;;;;;5025305;28;20790;-58
2023/10/06 12:58:48;;;;;;;10.33;3.57;;;;;;;;;;5018962;28;20461;-57
2023/10/06 13:01:13;;;;;;;12.47;3.80;;;;;;;;;;5022925;28;20418;-57
2023/10/06 13:03:38;;;;;;;10.87;3.57;;;;;;;;;;5016470;28;20409;-57
2023/10/06 13:06:04;;;;;;;12.30;3.77;;;;;;;;;;5021144;28;20407;-57
2023/10/06 13:08:30;;;;;;;10.43;3.72;;;;;;;;;;5022182;28;20465;-57
2023/10/06 13:10:55;;;;;;;10.53;3.70;;;;;;;;;;5017057;28;20498;-58
2023/10/06 13:13:20;;;;;;;12.27;3.90;;;;;;;;;;5022285;28;20395;-57
2023/10/06 13:15:46;;;;;;;10.03;3.73;;;;;;;;;;5019753;28;20766;-58
2023/10/06 13:18:11;;;;;;;9.83;3.73;;;;;;;;;;5016176;28;20793;-57
2023/10/06 13:20:38;;;;;;;9.90;3.53;;;;;;;;;;5023964;28;20417;-57
2023/10/06 13:23:04;;;;;;;9.23;3.58;;;;;;;;;;5019067;28;20427;-57
2023/10/06 13:25:31;;;;;;;10.43;3.93;;;;;;;;;;5016112;28;20407;-57
2023/10/06 13:27:56;;;;;;;9.73;3.80;;;;;;;;;;5020431;28;20402;-57
2023/10/06 13:30:22;;;;;;;11.30;4.00;;;;;;;;;;5017387;28;20395;-57
2023/10/06 13:32:48;;;;;;;9.93;3.53;;;;;;;;;;5012150;28;20707;-57
2023/10/06 13:35:16;;;;;;;8.00;3.58;;;;;;;;;;5004811;28;20806;-57
2023/10/06 13:37:42;;;;;;;8.50;3.42;;;;;;;;;;5004089;28;20419;-56
2023/10/06 13:40:10;;;;;;;12.77;4.13;;;;;;;;;;5004383;28;20441;-57
2023/10/06 13:42:39;;;;;;;11.10;4.15;;;;;;;;;;5009455;28;20800;-57
2023/10/06 13:45:12;;;;;;;12.52;4.05;;;;;;;;;;5009753;28;21340;-58
2023/10/06 13:47:39;;;;;;;9.43;3.60;;;;;;;;;;5008493;28;20410;-57
2023/10/06 13:50:04;;;;;;;8.83;3.60;;;;;;;;;;5008519;28;20541;-57
2023/10/06 13:52:30;;;;;;;10.80;3.88;;;;;;;;;;5009760;28;20412;-57
2023/10/06 13:54:55;;;;;;;10.67;3.40;;;;;;;;;;5011383;28;20403;-57
2023/10/06 13:57:21;;;;;;;10.93;3.70;;;;;;;;;;5000184;28;20457;-57
2023/10/06 13:59:46;;;;;;;8.10;3.50;;;;;;;;;;5000756;28;20429;-57
2023/10/06 14:02:12;;;;;;;9.05;3.63;;;;;;;;;;5004651;28;20508;-57
2023/10/06 14:04:37;;;;;;;10.95;3.80;;;;;;;;;;5013268;28;20404;-56
2023/10/06 14:07:05;;;;;;;11.03;3.83;;;;;;;;;;5009365;28;20413;-57
2023/10/06 14:09:31;;;;;;;8.20;3.23;;;;;;;;;;5010775;28;20463;-57
2023/10/06 14:11:56;;;;;;;10.60;3.45;;;;;;;;;;5009556;28;20706;-57
2023/10/06 14:14:54;;;;;;;8.87;3.33;;;;;;;;;;5008079;28;20403;-57
2023/10/06 14:17:16;;;;;;;10.68;3.67;;;;;;;;;;5006272;28;20764;-57
2023/10/06 14:19:41;;;;;;;12.68;3.97;;;;;;;;;;5004013;28;20417;-57
2023/10/06 14:22:07;;;;;;;11.27;3.80;;;;;;;;;;5001262;28;20952;-57
2023/10/06 14:24:34;;;;;;;10.03;4.10;;;;;;;;;;5002615;28;20499;-57
2023/10/06 14:27:00;;;;;;;14.07;3.80;;;;;;;;;;5008268;28;20400;-57
2023/10/06 14:29:26;;;;;;;10.53;3.80;;;;;;;;;;5009496;28;20403;-57
2023/10/06 14:32:09;;;;;;;10.32;3.67;;;;;;;;;;5008703;28;20403;-57
2023/10/06 14:34:46;;;;;;;11.02;4.00;;;;;;;;;;5009472;28;20400;-57
2023/10/06 14:37:25;;;;;;;9.37;3.70;;;;;;;;;;5009902;28;20461;-57
2023/10/06 14:48:01;;;;;;;9.00;3.50;;;;;;;;;;5003917;28;20474;-58
2023/10/06 14:50:27;;;;;;;10.20;3.50;;;;;;;;;;5010056;28;20411;-57
2023/10/06 14:52:52;;;;;;;8.25;3.25;;;;;;;;;;5009173;28;20890;-56
2023/10/06 14:55:18;;;;;;;8.73;3.47;;;;;;;;;;5008539;28;20488;-57